sensor_id;sensor_type;location;lat;lon;timestamp;P1;durP1;ratioP1;P2;durP2;ratioP2
50483;SDS011;36409;52.168;20.878;2023-07-02T00:01:33;27.00;;;20.03;;
50483;SDS011;36409;52.168;20.878;2023-07-02T00:04:02;25.63;;;19.20;;
50483;SDS011;36409;52.168;20.878;2023-07-02T00:06:32;32.53;;;20.30;;
50483;SDS011;36409;52.168;20.878;2023-07-02T00:09:11;26.50;;;19.60;;
50483;SDS011;36409;52.168;20.878;2023-07-02T00:11:41;27.43;;;20.07;;
50483;SDS011;36409;52.168;20.878;2023-07-02T00:14:16;24.90;;;19.00;;
50483;SDS011;36409;52.168;20.878;2023-07-02T00:17:00;28.07;;;19.63;;
50483;SDS011;36409;52.168;20.878;2023-07-02T00:19:29;27.83;;;18.77;;
50483;SDS011;36409;52.168;20.878;2023-07-02T00:21:58;28.43;;;20.03;;
50483;SDS011;36409;52.168;20.878;2023-07-02T00:24:28;28.47;;;19.80;;
50483;SDS011;36409;52.168;20.878;2023-07-02T00:26:57;25.50;;;18.27;;
50483;SDS011;36409;52.168;20.878;2023-07-02T00:29:29;29.00;;;18.90;;
50483;SDS011;36409;52.168;20.878;2023-07-02T00:31:58;25.83;;;18.20;;
50483;SDS011;36409;52.168;20.878;2023-07-02T00:34:28;33.60;;;21.23;;
50483;SDS011;36409;52.168;20.878;2023-07-02T00:36:57;27.13;;;21.10;;
50483;SDS011;36409;52.168;20.878;2023-07-02T00:39:30;30.37;;;21.10;;
50483;SDS011;36409;52.168;20.878;2023-07-02T00:42:00;27.80;;;20.47;;
50483;SDS011;36409;52.168;20.878;2023-07-02T00:44:30;31.53;;;21.43;;
50483;SDS011;36409;52.168;20.878;2023-07-02T00:47:01;27.93;;;21.10;;
50483;SDS011;36409;52.168;20.878;2023-07-02T00:49:31;27.80;;;20.23;;
50483;SDS011;36409;52.168;20.878;2023-07-02T00:52:00;31.80;;;21.77;;
50483;SDS011;36409;52.168;20.878;2023-07-02T00:54:30;27.13;;;20.13;;
50483;SDS011;36409;52.168;20.878;2023-07-02T00:57:01;29.03;;;21.27;;
50483;SDS011;36409;52.168;20.878;2023-07-02T00:59:31;26.33;;;19.83;;
50483;SDS011;36409;52.168;20.878;2023-07-02T01:02:03;30.67;;;20.17;;
50483;SDS011;36409;52.168;20.878;2023-07-02T01:04:34;29.03;;;20.20;;
50483;SDS011;36409;52.168;20.878;2023-07-02T01:07:07;25.57;;;18.93;;
50483;SDS011;36409;52.168;20.878;2023-07-02T01:09:39;25.67;;;19.53;;
50483;SDS011;36409;52.168;20.878;2023-07-02T01:12:09;25.87;;;19.73;;
50483;SDS011;36409;52.168;20.878;2023-07-02T01:14:41;26.37;;;19.57;;
50483;SDS011;36409;52.168;20.878;2023-07-02T01:17:13;25.50;;;20.23;;
50483;SDS011;36409;52.168;20.878;2023-07-02T01:19:47;27.42;;;19.60;;
50483;SDS011;36409;52.168;20.878;2023-07-02T01:22:20;26.40;;;19.27;;
50483;SDS011;36409;52.168;20.878;2023-07-02T01:24:53;29.50;;;19.23;;
50483;SDS011;36409;52.168;20.878;2023-07-02T01:27:28;28.33;;;18.60;;
50483;SDS011;36409;52.168;20.878;2023-07-02T01:29:57;24.63;;;19.13;;
50483;SDS011;36409;52.168;20.878;2023-07-02T01:32:27;29.07;;;20.47;;
50483;SDS011;36409;52.168;20.878;2023-07-02T01:34:59;26.63;;;20.00;;
50483;SDS011;36409;52.168;20.878;2023-07-02T01:37:28;25.90;;;20.13;;
50483;SDS011;36409;52.168;20.878;2023-07-02T01:40:05;28.43;;;20.43;;
50483;SDS011;36409;52.168;20.878;2023-07-02T01:42:36;24.77;;;19.17;;
50483;SDS011;36409;52.168;20.878;2023-07-02T01:45:07;26.53;;;19.33;;
50483;SDS011;36409;52.168;20.878;2023-07-02T01:47:37;28.43;;;20.43;;
50483;SDS011;36409;52.168;20.878;2023-07-02T01:50:07;26.40;;;19.47;;
50483;SDS011;36409;52.168;20.878;2023-07-02T01:52:37;29.13;;;20.43;;
50483;SDS011;36409;52.168;20.878;2023-07-02T01:55:07;29.60;;;20.17;;
50483;SDS011;36409;52.168;20.878;2023-07-02T01:57:37;30.97;;;20.13;;
50483;SDS011;36409;52.168;20.878;2023-07-02T02:00:07;29.10;;;20.37;;
50483;SDS011;36409;52.168;20.878;2023-07-02T02:02:44;28.40;;;20.47;;
50483;SDS011;36409;52.168;20.878;2023-07-02T02:05:13;25.40;;;18.50;;
50483;SDS011;36409;52.168;20.878;2023-07-02T02:07:42;27.00;;;20.20;;
50483;SDS011;36409;52.168;20.878;2023-07-02T02:10:12;29.33;;;19.57;;
50483;SDS011;36409;52.168;20.878;2023-07-02T02:12:42;26.67;;;19.63;;
50483;SDS011;36409;52.168;20.878;2023-07-02T02:15:16;25.70;;;18.90;;
50483;SDS011;36409;52.168;20.878;2023-07-02T02:17:45;24.80;;;18.87;;
50483;SDS011;36409;52.168;20.878;2023-07-02T02:20:14;23.87;;;19.20;;
50483;SDS011;36409;52.168;20.878;2023-07-02T02:22:44;24.23;;;18.70;;
50483;SDS011;36409;52.168;20.878;2023-07-02T02:25:13;26.00;;;18.80;;
50483;SDS011;36409;52.168;20.878;2023-07-02T02:27:43;24.07;;;17.43;;
50483;SDS011;36409;52.168;20.878;2023-07-02T02:30:13;27.17;;;18.57;;
50483;SDS011;36409;52.168;20.878;2023-07-02T02:32:44;23.40;;;18.83;;
50483;SDS011;36409;52.168;20.878;2023-07-02T02:35:18;25.23;;;18.40;;
50483;SDS011;36409;52.168;20.878;2023-07-02T02:37:47;23.63;;;17.13;;
50483;SDS011;36409;52.168;20.878;2023-07-02T02:40:16;23.70;;;18.47;;
50483;SDS011;36409;52.168;20.878;2023-07-02T02:42:45;29.50;;;18.70;;
50483;SDS011;36409;52.168;20.878;2023-07-02T02:45:16;24.77;;;17.97;;
50483;SDS011;36409;52.168;20.878;2023-07-02T02:47:46;24.87;;;17.87;;
50483;SDS011;36409;52.168;20.878;2023-07-02T02:50:16;23.13;;;17.47;;
50483;SDS011;36409;52.168;20.878;2023-07-02T02:52:46;24.70;;;17.33;;
50483;SDS011;36409;52.168;20.878;2023-07-02T02:55:15;23.07;;;17.73;;
50483;SDS011;36409;52.168;20.878;2023-07-02T02:57:47;27.43;;;17.23;;
50483;SDS011;36409;52.168;20.878;2023-07-02T03:00:19;24.73;;;16.70;;
50483;SDS011;36409;52.168;20.878;2023-07-02T03:02:49;26.47;;;17.33;;
50483;SDS011;36409;52.168;20.878;2023-07-02T03:05:20;20.97;;;16.47;;
50483;SDS011;36409;52.168;20.878;2023-07-02T03:07:50;19.73;;;15.77;;
50483;SDS011;36409;52.168;20.878;2023-07-02T03:10:20;24.67;;;17.10;;
50483;SDS011;36409;52.168;20.878;2023-07-02T03:12:52;20.47;;;15.90;;
50483;SDS011;36409;52.168;20.878;2023-07-02T03:15:21;22.93;;;17.33;;
50483;SDS011;36409;52.168;20.878;2023-07-02T03:17:51;22.23;;;16.53;;
50483;SDS011;36409;52.168;20.878;2023-07-02T03:20:21;25.27;;;16.50;;
50483;SDS011;36409;52.168;20.878;2023-07-02T03:22:50;19.70;;;15.33;;
50483;SDS011;36409;52.168;20.878;2023-07-02T03:25:20;21.67;;;15.43;;
50483;SDS011;36409;52.168;20.878;2023-07-02T03:27:52;19.30;;;14.47;;
50483;SDS011;36409;52.168;20.878;2023-07-02T03:30:21;18.80;;;14.95;;
50483;SDS011;36409;52.168;20.878;2023-07-02T03:32:50;18.47;;;15.30;;
50483;SDS011;36409;52.168;20.878;2023-07-02T03:35:22;18.03;;;13.73;;
50483;SDS011;36409;52.168;20.878;2023-07-02T03:37:52;19.50;;;15.15;;
50483;SDS011;36409;52.168;20.878;2023-07-02T03:40:24;20.50;;;15.53;;
50483;SDS011;36409;52.168;20.878;2023-07-02T03:42:54;22.60;;;16.13;;
50483;SDS011;36409;52.168;20.878;2023-07-02T03:45:23;20.53;;;14.77;;
50483;SDS011;36409;52.168;20.878;2023-07-02T03:47:53;18.77;;;13.63;;
50483;SDS011;36409;52.168;20.878;2023-07-02T03:50:22;20.13;;;14.37;;
50483;SDS011;36409;52.168;20.878;2023-07-02T03:52:54;16.77;;;13.23;;
50483;SDS011;36409;52.168;20.878;2023-07-02T03:55:23;18.20;;;13.67;;
50483;SDS011;36409;52.168;20.878;2023-07-02T03:57:53;19.03;;;14.20;;
50483;SDS011;36409;52.168;20.878;2023-07-02T04:00:22;19.10;;;12.67;;
50483;SDS011;36409;52.168;20.878;2023-07-02T04:02:53;19.50;;;13.20;;
50483;SDS011;36409;52.168;20.878;2023-07-02T04:05:22;18.03;;;12.90;;
50483;SDS011;36409;52.168;20.878;2023-07-02T04:07:52;28.70;;;14.33;;
50483;SDS011;36409;52.168;20.878;2023-07-02T04:10:21;14.93;;;12.03;;
50483;SDS011;36409;52.168;20.878;2023-07-02T04:12:51;15.70;;;13.03;;
50483;SDS011;36409;52.168;20.878;2023-07-02T04:15:21;18.37;;;12.50;;
50483;SDS011;36409;52.168;20.878;2023-07-02T04:17:52;15.53;;;12.23;;
50483;SDS011;36409;52.168;20.878;2023-07-02T04:20:22;16.83;;;12.37;;
50483;SDS011;36409;52.168;20.878;2023-07-02T04:22:54;15.47;;;12.20;;
50483;SDS011;36409;52.168;20.878;2023-07-02T04:25:23;18.63;;;11.30;;
50483;SDS011;36409;52.168;20.878;2023-07-02T04:28:12;19.07;;;12.30;;
50483;SDS011;36409;52.168;20.878;2023-07-02T04:30:45;15.25;;;11.08;;
50483;SDS011;36409;52.168;20.878;2023-07-02T04:33:17;15.40;;;11.60;;
50483;SDS011;36409;52.168;20.878;2023-07-02T04:35:49;16.40;;;11.10;;
50483;SDS011;36409;52.168;20.878;2023-07-02T04:38:21;15.80;;;10.80;;
50483;SDS011;36409;52.168;20.878;2023-07-02T04:40:50;14.37;;;10.03;;
50483;SDS011;36409;52.168;20.878;2023-07-02T04:43:22;14.50;;;10.30;;
50483;SDS011;36409;52.168;20.878;2023-07-02T04:45:51;16.55;;;10.55;;
50483;SDS011;36409;52.168;20.878;2023-07-02T04:48:22;13.17;;;9.47;;
50483;SDS011;36409;52.168;20.878;2023-07-02T04:50:52;12.87;;;9.27;;
50483;SDS011;36409;52.168;20.878;2023-07-02T04:53:22;13.43;;;9.40;;
50483;SDS011;36409;52.168;20.878;2023-07-02T04:55:51;13.30;;;9.03;;
50483;SDS011;36409;52.168;20.878;2023-07-02T04:58:23;13.67;;;8.83;;
50483;SDS011;36409;52.168;20.878;2023-07-02T05:00:53;13.03;;;8.63;;
50483;SDS011;36409;52.168;20.878;2023-07-02T05:03:22;13.00;;;8.63;;
50483;SDS011;36409;52.168;20.878;2023-07-02T05:05:53;13.13;;;9.30;;
50483;SDS011;36409;52.168;20.878;2023-07-02T05:08:22;13.03;;;8.80;;
50483;SDS011;36409;52.168;20.878;2023-07-02T05:10:51;11.07;;;8.37;;
50483;SDS011;36409;52.168;20.878;2023-07-02T05:13:22;14.20;;;8.13;;
50483;SDS011;36409;52.168;20.878;2023-07-02T05:15:54;12.10;;;8.10;;
50483;SDS011;36409;52.168;20.878;2023-07-02T05:18:23;13.63;;;9.13;;
50483;SDS011;36409;52.168;20.878;2023-07-02T05:20:53;12.60;;;7.97;;
50483;SDS011;36409;52.168;20.878;2023-07-02T05:23:22;12.87;;;7.97;;
50483;SDS011;36409;52.168;20.878;2023-07-02T05:25:54;17.33;;;7.97;;
50483;SDS011;36409;52.168;20.878;2023-07-02T05:28:33;11.97;;;8.13;;
50483;SDS011;36409;52.168;20.878;2023-07-02T05:31:08;15.87;;;8.57;;
50483;SDS011;36409;52.168;20.878;2023-07-02T05:33:38;12.63;;;8.10;;
50483;SDS011;36409;52.168;20.878;2023-07-02T05:36:09;14.83;;;8.33;;
50483;SDS011;36409;52.168;20.878;2023-07-02T05:38:38;9.80;;;7.40;;
50483;SDS011;36409;52.168;20.878;2023-07-02T05:41:07;17.40;;;8.07;;
50483;SDS011;36409;52.168;20.878;2023-07-02T05:43:36;10.40;;;7.53;;
50483;SDS011;36409;52.168;20.878;2023-07-02T05:46:06;9.73;;;7.27;;
50483;SDS011;36409;52.168;20.878;2023-07-02T05:48:35;12.00;;;7.07;;
50483;SDS011;36409;52.168;20.878;2023-07-02T05:51:04;11.40;;;7.45;;
50483;SDS011;36409;52.168;20.878;2023-07-02T05:53:34;10.30;;;7.33;;
50483;SDS011;36409;52.168;20.878;2023-07-02T05:56:05;13.43;;;6.93;;
50483;SDS011;36409;52.168;20.878;2023-07-02T05:58:35;8.37;;;6.33;;
50483;SDS011;36409;52.168;20.878;2023-07-02T06:01:14;12.77;;;7.17;;
50483;SDS011;36409;52.168;20.878;2023-07-02T06:03:43;16.20;;;7.13;;
50483;SDS011;36409;52.168;20.878;2023-07-02T06:06:13;12.50;;;7.90;;
50483;SDS011;36409;52.168;20.878;2023-07-02T06:08:43;11.87;;;7.67;;
50483;SDS011;36409;52.168;20.878;2023-07-02T06:11:12;8.90;;;6.80;;
50483;SDS011;36409;52.168;20.878;2023-07-02T06:13:41;11.10;;;7.40;;
50483;SDS011;36409;52.168;20.878;2023-07-02T06:16:11;12.60;;;7.83;;
50483;SDS011;36409;52.168;20.878;2023-07-02T06:18:40;10.23;;;7.07;;
50483;SDS011;36409;52.168;20.878;2023-07-02T06:21:10;12.27;;;7.43;;
50483;SDS011;36409;52.168;20.878;2023-07-02T06:23:42;10.87;;;7.43;;
50483;SDS011;36409;52.168;20.878;2023-07-02T06:26:12;9.63;;;7.12;;
50483;SDS011;36409;52.168;20.878;2023-07-02T06:28:44;10.30;;;7.47;;
50483;SDS011;36409;52.168;20.878;2023-07-02T06:31:20;11.40;;;7.47;;
50483;SDS011;36409;52.168;20.878;2023-07-02T06:33:49;11.53;;;7.17;;
50483;SDS011;36409;52.168;20.878;2023-07-02T06:36:20;20.53;;;7.63;;
50483;SDS011;36409;52.168;20.878;2023-07-02T06:38:50;10.63;;;7.23;;
50483;SDS011;36409;52.168;20.878;2023-07-02T06:41:23;10.30;;;6.67;;
50483;SDS011;36409;52.168;20.878;2023-07-02T06:43:54;13.10;;;7.27;;
50483;SDS011;36409;52.168;20.878;2023-07-02T06:46:23;10.40;;;6.63;;
50483;SDS011;36409;52.168;20.878;2023-07-02T06:48:52;9.40;;;5.80;;
50483;SDS011;36409;52.168;20.878;2023-07-02T06:51:22;8.27;;;5.97;;
50483;SDS011;36409;52.168;20.878;2023-07-02T06:53:53;11.55;;;5.90;;
50483;SDS011;36409;52.168;20.878;2023-07-02T06:56:23;11.07;;;6.73;;
50483;SDS011;36409;52.168;20.878;2023-07-02T06:58:55;11.63;;;6.43;;
50483;SDS011;36409;52.168;20.878;2023-07-02T07:01:29;10.60;;;5.73;;
50483;SDS011;36409;52.168;20.878;2023-07-02T07:03:58;11.43;;;5.80;;
50483;SDS011;36409;52.168;20.878;2023-07-02T07:06:28;7.87;;;4.97;;
50483;SDS011;36409;52.168;20.878;2023-07-02T07:08:58;8.03;;;5.53;;
50483;SDS011;36409;52.168;20.878;2023-07-02T07:11:27;8.33;;;5.30;;
50483;SDS011;36409;52.168;20.878;2023-07-02T07:13:57;7.87;;;5.03;;
50483;SDS011;36409;52.168;20.878;2023-07-02T07:16:27;13.73;;;5.60;;
50483;SDS011;36409;52.168;20.878;2023-07-02T07:18:56;9.37;;;5.47;;
50483;SDS011;36409;52.168;20.878;2023-07-02T07:21:25;9.10;;;5.37;;
50483;SDS011;36409;52.168;20.878;2023-07-02T07:23:56;9.63;;;4.33;;
50483;SDS011;36409;52.168;20.878;2023-07-02T07:26:25;8.40;;;4.87;;
50483;SDS011;36409;52.168;20.878;2023-07-02T07:28:55;9.63;;;4.93;;
50483;SDS011;36409;52.168;20.878;2023-07-02T07:31:25;9.33;;;4.33;;
50483;SDS011;36409;52.168;20.878;2023-07-02T07:33:55;7.73;;;4.17;;
50483;SDS011;36409;52.168;20.878;2023-07-02T07:36:24;6.67;;;3.90;;
50483;SDS011;36409;52.168;20.878;2023-07-02T07:38:54;8.17;;;4.00;;
50483;SDS011;36409;52.168;20.878;2023-07-02T07:43:56;5.83;;;3.70;;
50483;SDS011;36409;52.168;20.878;2023-07-02T07:46:26;8.73;;;4.00;;
50483;SDS011;36409;52.168;20.878;2023-07-02T07:48:55;8.67;;;3.63;;
50483;SDS011;36409;52.168;20.878;2023-07-02T07:51:24;5.03;;;3.57;;
50483;SDS011;36409;52.168;20.878;2023-07-02T07:54:02;7.80;;;4.10;;
50483;SDS011;36409;52.168;20.878;2023-07-02T07:56:32;8.03;;;4.47;;
50483;SDS011;36409;52.168;20.878;2023-07-02T07:59:03;6.20;;;3.97;;
50483;SDS011;36409;52.168;20.878;2023-07-02T08:01:32;9.17;;;3.93;;
50483;SDS011;36409;52.168;20.878;2023-07-02T08:04:02;9.85;;;4.35;;
50483;SDS011;36409;52.168;20.878;2023-07-02T08:06:31;6.77;;;4.13;;
50483;SDS011;36409;52.168;20.878;2023-07-02T08:09:01;6.33;;;3.63;;
50483;SDS011;36409;52.168;20.878;2023-07-02T08:11:31;8.07;;;3.43;;
50483;SDS011;36409;52.168;20.878;2023-07-02T08:14:02;5.40;;;3.33;;
50483;SDS011;36409;52.168;20.878;2023-07-02T08:16:32;6.50;;;3.60;;
50483;SDS011;36409;52.168;20.878;2023-07-02T08:19:05;7.83;;;3.40;;
50483;SDS011;36409;52.168;20.878;2023-07-02T08:21:34;11.60;;;3.57;;
50483;SDS011;36409;52.168;20.878;2023-07-02T08:24:04;7.50;;;3.23;;
50483;SDS011;36409;52.168;20.878;2023-07-02T08:26:37;8.13;;;3.40;;
50483;SDS011;36409;52.168;20.878;2023-07-02T08:29:06;6.60;;;3.70;;
50483;SDS011;36409;52.168;20.878;2023-07-02T08:31:35;8.83;;;3.30;;
50483;SDS011;36409;52.168;20.878;2023-07-02T08:34:05;5.90;;;3.30;;
50483;SDS011;36409;52.168;20.878;2023-07-02T08:36:34;6.77;;;3.37;;
50483;SDS011;36409;52.168;20.878;2023-07-02T08:39:04;11.33;;;3.33;;
50483;SDS011;36409;52.168;20.878;2023-07-02T08:41:42;8.47;;;3.30;;
50483;SDS011;36409;52.168;20.878;2023-07-02T08:44:12;5.50;;;3.20;;
50483;SDS011;36409;52.168;20.878;2023-07-02T08:46:43;9.77;;;3.37;;
50483;SDS011;36409;52.168;20.878;2023-07-02T08:49:15;6.40;;;2.50;;
50483;SDS011;36409;52.168;20.878;2023-07-02T08:51:44;4.83;;;3.00;;
50483;SDS011;36409;52.168;20.878;2023-07-02T08:54:19;5.17;;;2.33;;
50483;SDS011;36409;52.168;20.878;2023-07-02T08:56:53;5.37;;;2.80;;
50483;SDS011;36409;52.168;20.878;2023-07-02T08:59:24;5.63;;;2.60;;
50483;SDS011;36409;52.168;20.878;2023-07-02T09:01:54;4.60;;;2.40;;
50483;SDS011;36409;52.168;20.878;2023-07-02T09:04:23;5.27;;;2.70;;
50483;SDS011;36409;52.168;20.878;2023-07-02T09:07:03;7.70;;;2.73;;
50483;SDS011;36409;52.168;20.878;2023-07-02T09:09:34;5.93;;;3.07;;
50483;SDS011;36409;52.168;20.878;2023-07-02T09:12:24;7.53;;;3.10;;
50483;SDS011;36409;52.168;20.878;2023-07-02T09:14:56;5.23;;;3.23;;
50483;SDS011;36409;52.168;20.878;2023-07-02T09:17:29;4.63;;;2.73;;
50483;SDS011;36409;52.168;20.878;2023-07-02T09:20:00;5.77;;;3.13;;
50483;SDS011;36409;52.168;20.878;2023-07-02T09:22:32;7.10;;;2.80;;
50483;SDS011;36409;52.168;20.878;2023-07-02T09:25:02;5.93;;;2.97;;
50483;SDS011;36409;52.168;20.878;2023-07-02T09:27:36;4.57;;;2.60;;
50483;SDS011;36409;52.168;20.878;2023-07-02T09:32:35;5.20;;;2.57;;
50483;SDS011;36409;52.168;20.878;2023-07-02T09:35:06;7.50;;;2.70;;
50483;SDS011;36409;52.168;20.878;2023-07-02T09:37:35;4.10;;;2.10;;
50483;SDS011;36409;52.168;20.878;2023-07-02T09:40:07;4.13;;;2.43;;
50483;SDS011;36409;52.168;20.878;2023-07-02T09:42:38;5.00;;;2.87;;
50483;SDS011;36409;52.168;20.878;2023-07-02T09:45:10;5.93;;;2.87;;
50483;SDS011;36409;52.168;20.878;2023-07-02T09:47:41;5.83;;;2.57;;
50483;SDS011;36409;52.168;20.878;2023-07-02T09:50:14;4.80;;;2.40;;
50483;SDS011;36409;52.168;20.878;2023-07-02T09:52:46;4.63;;;2.80;;
50483;SDS011;36409;52.168;20.878;2023-07-02T09:55:19;5.43;;;2.50;;
50483;SDS011;36409;52.168;20.878;2023-07-02T09:57:49;4.00;;;2.33;;
50483;SDS011;36409;52.168;20.878;2023-07-02T10:00:20;6.20;;;2.30;;
50483;SDS011;36409;52.168;20.878;2023-07-02T10:02:49;6.60;;;2.47;;
50483;SDS011;36409;52.168;20.878;2023-07-02T10:05:26;5.00;;;2.27;;
50483;SDS011;36409;52.168;20.878;2023-07-02T10:07:57;3.80;;;2.43;;
50483;SDS011;36409;52.168;20.878;2023-07-02T10:10:53;5.10;;;1.90;;
50483;SDS011;36409;52.168;20.878;2023-07-02T10:13:29;4.10;;;2.40;;
50483;SDS011;36409;52.168;20.878;2023-07-02T10:16:01;4.97;;;2.40;;
50483;SDS011;36409;52.168;20.878;2023-07-02T10:18:31;9.90;;;2.12;;
50483;SDS011;36409;52.168;20.878;2023-07-02T10:21:13;3.73;;;2.20;;
50483;SDS011;36409;52.168;20.878;2023-07-02T10:23:45;5.67;;;2.10;;
50483;SDS011;36409;52.168;20.878;2023-07-02T10:26:15;3.57;;;2.20;;
50483;SDS011;36409;52.168;20.878;2023-07-02T10:28:56;6.07;;;2.20;;
50483;SDS011;36409;52.168;20.878;2023-07-02T10:31:25;3.93;;;1.90;;
50483;SDS011;36409;52.168;20.878;2023-07-02T10:33:55;5.07;;;2.30;;
50483;SDS011;36409;52.168;20.878;2023-07-02T10:36:24;3.60;;;2.10;;
50483;SDS011;36409;52.168;20.878;2023-07-02T10:39:00;5.20;;;2.03;;
50483;SDS011;36409;52.168;20.878;2023-07-02T10:41:32;5.25;;;2.30;;
50483;SDS011;36409;52.168;20.878;2023-07-02T10:44:05;3.77;;;2.27;;
50483;SDS011;36409;52.168;20.878;2023-07-02T10:46:42;4.70;;;2.20;;
50483;SDS011;36409;52.168;20.878;2023-07-02T10:49:12;4.67;;;2.30;;
50483;SDS011;36409;52.168;20.878;2023-07-02T10:51:41;6.27;;;2.47;;
50483;SDS011;36409;52.168;20.878;2023-07-02T10:54:11;5.67;;;2.00;;
50483;SDS011;36409;52.168;20.878;2023-07-02T10:56:40;3.60;;;2.00;;
50483;SDS011;36409;52.168;20.878;2023-07-02T10:59:10;4.73;;;2.03;;
50483;SDS011;36409;52.168;20.878;2023-07-02T11:01:39;4.00;;;1.90;;
50483;SDS011;36409;52.168;20.878;2023-07-02T11:04:09;3.80;;;2.00;;
50483;SDS011;36409;52.168;20.878;2023-07-02T11:06:38;3.30;;;1.80;;
50483;SDS011;36409;52.168;20.878;2023-07-02T11:09:15;4.67;;;1.97;;
50483;SDS011;36409;52.168;20.878;2023-07-02T11:11:55;4.20;;;1.90;;
50483;SDS011;36409;52.168;20.878;2023-07-02T11:14:29;4.40;;;1.57;;
50483;SDS011;36409;52.168;20.878;2023-07-02T11:17:00;3.03;;;2.10;;
50483;SDS011;36409;52.168;20.878;2023-07-02T11:19:33;3.50;;;1.90;;
50483;SDS011;36409;52.168;20.878;2023-07-02T11:22:03;2.40;;;1.50;;
50483;SDS011;36409;52.168;20.878;2023-07-02T11:24:33;4.07;;;1.53;;
50483;SDS011;36409;52.168;20.878;2023-07-02T11:27:05;5.33;;;1.87;;
50483;SDS011;36409;52.168;20.878;2023-07-02T11:29:34;2.37;;;1.40;;
50483;SDS011;36409;52.168;20.878;2023-07-02T11:32:07;3.75;;;1.80;;
50483;SDS011;36409;52.168;20.878;2023-07-02T11:34:38;3.93;;;1.93;;
50483;SDS011;36409;52.168;20.878;2023-07-02T11:37:08;2.20;;;1.40;;
50483;SDS011;36409;52.168;20.878;2023-07-02T11:39:37;2.83;;;1.90;;
50483;SDS011;36409;52.168;20.878;2023-07-02T11:42:08;3.20;;;1.70;;
50483;SDS011;36409;52.168;20.878;2023-07-02T11:44:37;4.67;;;1.73;;
50483;SDS011;36409;52.168;20.878;2023-07-02T11:47:07;3.70;;;2.00;;
50483;SDS011;36409;52.168;20.878;2023-07-02T11:49:36;2.93;;;1.50;;
50483;SDS011;36409;52.168;20.878;2023-07-02T11:52:06;7.13;;;1.97;;
50483;SDS011;36409;52.168;20.878;2023-07-02T11:57:26;4.17;;;1.70;;
50483;SDS011;36409;52.168;20.878;2023-07-02T12:05:43;4.10;;;1.90;;
50483;SDS011;36409;52.168;20.878;2023-07-02T12:08:14;9.40;;;1.90;;
50483;SDS011;36409;52.168;20.878;2023-07-02T12:10:49;5.23;;;1.60;;
50483;SDS011;36409;52.168;20.878;2023-07-02T12:13:35;4.23;;;1.73;;
50483;SDS011;36409;52.168;20.878;2023-07-02T12:16:05;8.10;;;2.07;;
50483;SDS011;36409;52.168;20.878;2023-07-02T12:18:34;2.67;;;1.60;;
50483;SDS011;36409;52.168;20.878;2023-07-02T12:21:03;6.30;;;1.50;;
50483;SDS011;36409;52.168;20.878;2023-07-02T12:23:32;4.67;;;1.63;;
50483;SDS011;36409;52.168;20.878;2023-07-02T12:26:02;5.60;;;2.00;;
50483;SDS011;36409;52.168;20.878;2023-07-02T12:28:31;2.37;;;1.47;;
50483;SDS011;36409;52.168;20.878;2023-07-02T12:31:00;5.90;;;1.73;;
50483;SDS011;36409;52.168;20.878;2023-07-02T12:33:30;4.27;;;1.43;;
50483;SDS011;36409;52.168;20.878;2023-07-02T12:36:00;4.50;;;1.47;;
50483;SDS011;36409;52.168;20.878;2023-07-02T12:38:31;7.47;;;1.70;;
50483;SDS011;36409;52.168;20.878;2023-07-02T12:41:05;4.27;;;1.40;;
50483;SDS011;36409;52.168;20.878;2023-07-02T12:43:34;4.77;;;1.50;;
50483;SDS011;36409;52.168;20.878;2023-07-02T12:46:04;4.75;;;1.50;;
50483;SDS011;36409;52.168;20.878;2023-07-02T12:48:34;4.40;;;1.47;;
50483;SDS011;36409;52.168;20.878;2023-07-02T12:51:03;2.40;;;1.50;;
50483;SDS011;36409;52.168;20.878;2023-07-02T12:53:35;1.80;;;1.30;;
50483;SDS011;36409;52.168;20.878;2023-07-02T12:56:10;5.50;;;1.57;;
50483;SDS011;36409;52.168;20.878;2023-07-02T12:58:39;2.07;;;1.23;;
50483;SDS011;36409;52.168;20.878;2023-07-02T13:01:08;5.93;;;1.70;;
50483;SDS011;36409;52.168;20.878;2023-07-02T13:03:38;4.47;;;2.00;;
50483;SDS011;36409;52.168;20.878;2023-07-02T13:06:16;6.30;;;1.40;;
50483;SDS011;36409;52.168;20.878;2023-07-02T13:08:45;2.10;;;1.20;;
50483;SDS011;36409;52.168;20.878;2023-07-02T13:11:21;5.90;;;1.40;;
50483;SDS011;36409;52.168;20.878;2023-07-02T13:13:50;4.97;;;1.80;;
50483;SDS011;36409;52.168;20.878;2023-07-02T13:16:21;2.17;;;1.27;;
50483;SDS011;36409;52.168;20.878;2023-07-02T13:18:51;2.83;;;1.40;;
50483;SDS011;36409;52.168;20.878;2023-07-02T13:21:25;3.90;;;1.47;;
50483;SDS011;36409;52.168;20.878;2023-07-02T13:23:54;6.33;;;1.60;;
50483;SDS011;36409;52.168;20.878;2023-07-02T13:26:23;4.43;;;1.50;;
50483;SDS011;36409;52.168;20.878;2023-07-02T13:28:54;13.17;;;1.97;;
50483;SDS011;36409;52.168;20.878;2023-07-02T13:31:24;3.23;;;1.73;;
50483;SDS011;36409;52.168;20.878;2023-07-02T13:33:53;4.90;;;1.50;;
50483;SDS011;36409;52.168;20.878;2023-07-02T13:36:22;6.90;;;1.50;;
50483;SDS011;36409;52.168;20.878;2023-07-02T13:38:53;3.10;;;1.50;;
50483;SDS011;36409;52.168;20.878;2023-07-02T13:41:22;3.83;;;1.50;;
50483;SDS011;36409;52.168;20.878;2023-07-02T13:43:51;3.67;;;1.53;;
50483;SDS011;36409;52.168;20.878;2023-07-02T13:46:21;5.13;;;1.70;;
50483;SDS011;36409;52.168;20.878;2023-07-02T13:48:50;2.43;;;1.53;;
50483;SDS011;36409;52.168;20.878;2023-07-02T13:51:21;3.93;;;2.00;;
50483;SDS011;36409;52.168;20.878;2023-07-02T13:53:54;4.50;;;1.40;;
50483;SDS011;36409;52.168;20.878;2023-07-02T13:56:23;2.47;;;1.40;;
50483;SDS011;36409;52.168;20.878;2023-07-02T13:59:02;4.97;;;1.60;;
50483;SDS011;36409;52.168;20.878;2023-07-02T14:01:32;7.13;;;1.70;;
50483;SDS011;36409;52.168;20.878;2023-07-02T14:04:02;4.40;;;1.60;;
50483;SDS011;36409;52.168;20.878;2023-07-02T14:06:32;3.93;;;1.80;;
50483;SDS011;36409;52.168;20.878;2023-07-02T14:09:01;4.77;;;1.73;;
50483;SDS011;36409;52.168;20.878;2023-07-02T14:11:34;5.53;;;2.20;;
50483;SDS011;36409;52.168;20.878;2023-07-02T14:14:15;5.03;;;1.53;;
50483;SDS011;36409;52.168;20.878;2023-07-02T14:16:46;3.60;;;1.43;;
50483;SDS011;36409;52.168;20.878;2023-07-02T14:19:15;2.37;;;1.40;;
50483;SDS011;36409;52.168;20.878;2023-07-02T14:21:44;4.23;;;1.53;;
50483;SDS011;36409;52.168;20.878;2023-07-02T14:24:15;4.80;;;1.60;;
50483;SDS011;36409;52.168;20.878;2023-07-02T14:26:45;2.97;;;1.57;;
50483;SDS011;36409;52.168;20.878;2023-07-02T14:29:14;2.83;;;1.40;;
50483;SDS011;36409;52.168;20.878;2023-07-02T14:31:44;5.23;;;1.50;;
50483;SDS011;36409;52.168;20.878;2023-07-02T14:34:13;4.27;;;1.33;;
50483;SDS011;36409;52.168;20.878;2023-07-02T14:36:44;4.07;;;1.40;;
50483;SDS011;36409;52.168;20.878;2023-07-02T14:39:14;3.40;;;1.60;;
50483;SDS011;36409;52.168;20.878;2023-07-02T14:41:45;4.60;;;1.73;;
50483;SDS011;36409;52.168;20.878;2023-07-02T14:44:14;5.03;;;1.70;;
50483;SDS011;36409;52.168;20.878;2023-07-02T14:46:45;2.93;;;1.50;;
50483;SDS011;36409;52.168;20.878;2023-07-02T14:49:14;6.30;;;1.87;;
50483;SDS011;36409;52.168;20.878;2023-07-02T14:51:45;4.33;;;1.50;;
50483;SDS011;36409;52.168;20.878;2023-07-02T14:54:15;3.07;;;1.40;;
50483;SDS011;36409;52.168;20.878;2023-07-02T14:56:45;5.33;;;1.67;;
50483;SDS011;36409;52.168;20.878;2023-07-02T14:59:14;3.53;;;1.60;;